createdAt,value
2022-11-20T00:02:26.316Z,100613.31
2022-11-20T00:04:53.077Z,100615.91
2022-11-20T00:07:19.836Z,100612.16
2022-11-20T00:09:46.596Z,100610.78
2022-11-20T00:12:13.431Z,100611.84
2022-11-20T00:14:40.177Z,100606.84
2022-11-20T00:17:07.073Z,100603.81
2022-11-20T00:19:33.827Z,100596.34
2022-11-20T00:22:01.673Z,100602.47
2022-11-20T00:24:28.417Z,100604.16
2022-11-20T00:26:55.165Z,100595.88
2022-11-20T00:29:22.026Z,100594.56
2022-11-20T00:31:48.835Z,100602.75
2022-11-20T00:34:15.768Z,100607.78
2022-11-20T00:36:42.524Z,100598.25
2022-11-20T00:39:09.288Z,100598.56
2022-11-20T00:41:36.047Z,100602.31
2022-11-20T00:44:02.775Z,100596.81
2022-11-20T00:46:29.559Z,100605.00
2022-11-20T00:48:56.353Z,100596.13
2022-11-20T00:51:23.130Z,100596.88
2022-11-20T00:53:50.183Z,100585.06
2022-11-20T00:56:16.936Z,100589.69
2022-11-20T00:58:43.665Z,100582.50
2022-11-20T01:01:10.463Z,100570.66
2022-11-20T01:03:37.248Z,100579.78
2022-11-20T01:06:03.982Z,100579.66
2022-11-20T01:08:30.707Z,100581.97
2022-11-20T01:10:57.450Z,100581.03
2022-11-20T01:13:39.440Z,100576.44
2022-11-20T01:16:06.383Z,100581.00
2022-11-20T01:18:33.117Z,100570.03
2022-11-20T01:20:59.841Z,100572.78
2022-11-20T01:23:26.593Z,100580.09
2022-11-20T01:25:53.324Z,100566.28
2022-11-20T01:28:20.052Z,100578.41
2022-11-20T01:30:46.794Z,100565.66
2022-11-20T01:33:13.529Z,100570.38
2022-11-20T01:35:40.270Z,100567.09
2022-11-20T01:38:06.995Z,100565.59
2022-11-20T01:40:33.747Z,100562.31
2022-11-20T01:43:19.060Z,100565.19
2022-11-20T01:45:45.854Z,100553.56
2022-11-20T01:48:12.588Z,100553.94
2022-11-20T01:50:39.398Z,100556.00
2022-11-20T01:53:06.247Z,100554.25
2022-11-20T01:55:32.967Z,100549.50
2022-11-20T01:57:59.738Z,100558.88
2022-11-20T02:00:26.651Z,100553.31
2022-11-20T02:02:53.377Z,100553.09
2022-11-20T02:05:20.160Z,100549.81
2022-11-20T02:07:46.884Z,100552.25
2022-11-20T02:10:13.624Z,100544.97
2022-11-20T02:12:58.904Z,100553.34
2022-11-20T02:15:30.110Z,100542.81
2022-11-20T02:17:57.238Z,100541.88
2022-11-20T02:20:24.017Z,100532.03
2022-11-20T02:22:50.769Z,100530.16
2022-11-20T02:25:17.483Z,100539.22
2022-11-20T02:27:44.228Z,100536.16
2022-11-20T02:30:11.956Z,100537.50
2022-11-20T02:32:39.070Z,100535.31
2022-11-20T02:35:06.133Z,100532.47
2022-11-20T02:37:32.870Z,100535.22
2022-11-20T02:39:59.600Z,100531.25
2022-11-20T02:42:26.360Z,100536.88
2022-11-20T02:44:53.272Z,100531.63
2022-11-20T02:47:19.999Z,100528.03
2022-11-20T02:49:46.748Z,100532.41
2022-11-20T02:52:13.513Z,100537.00
2022-11-20T02:54:40.242Z,100528.47
2022-11-20T02:57:07.047Z,100532.16
2022-11-20T02:59:33.779Z,100526.81
2022-11-20T03:02:00.526Z,100521.72
2022-11-20T03:04:27.273Z,100523.16
2022-11-20T03:06:54.000Z,100521.22
2022-11-20T03:09:21.056Z,100520.59
2022-11-20T03:11:48.578Z,100521.78
2022-11-20T03:14:15.405Z,100510.50
2022-11-20T03:16:42.136Z,100513.63
2022-11-20T03:19:08.912Z,100519.25
2022-11-20T03:21:35.642Z,100510.91
2022-11-20T03:24:02.373Z,100518.69
2022-11-20T03:26:29.161Z,100512.56
2022-11-20T03:28:55.883Z,100513.47
2022-11-20T03:31:22.876Z,100511.47
2022-11-20T03:33:49.653Z,100509.63
2022-11-20T03:36:16.375Z,100508.91
2022-11-20T03:38:43.093Z,100509.00
2022-11-20T03:41:09.842Z,100508.69
2022-11-20T03:43:36.566Z,100502.50
2022-11-20T03:46:03.296Z,100499.50
2022-11-20T03:48:30.041Z,100506.94
2022-11-20T03:50:56.771Z,100503.78
2022-11-20T03:53:23.516Z,100490.16
2022-11-20T03:55:50.275Z,100492.81
2022-11-20T03:58:17.001Z,100489.25
2022-11-20T04:00:43.730Z,100490.28
2022-11-20T04:03:10.457Z,100494.25
2022-11-20T04:05:37.172Z,100492.88
2022-11-20T04:08:03.896Z,100489.16
2022-11-20T04:10:30.763Z,100486.50
2022-11-20T04:12:57.521Z,100478.09
2022-11-20T04:15:24.259Z,100483.47
2022-11-20T04:17:51.057Z,100481.03
2022-11-20T04:20:17.789Z,100479.28
2022-11-20T04:22:44.523Z,100483.81
2022-11-20T04:25:11.336Z,100478.72
2022-11-20T04:27:38.083Z,100475.00
2022-11-20T04:30:04.868Z,100472.25
2022-11-20T04:32:31.615Z,100479.38
2022-11-20T04:34:58.372Z,100477.03
2022-11-20T04:37:25.125Z,100476.84
2022-11-20T04:39:51.850Z,100472.75
2022-11-20T04:42:30.844Z,100467.09
2022-11-20T04:44:57.684Z,100479.13
2022-11-20T04:47:24.444Z,100473.63
2022-11-20T04:49:51.256Z,100468.38
2022-11-20T04:52:18.057Z,100468.97
2022-11-20T04:54:44.819Z,100465.56
2022-11-20T04:57:14.583Z,100470.91
2022-11-20T04:59:41.746Z,100472.69
2022-11-20T05:02:08.789Z,100471.06
2022-11-20T05:04:35.503Z,100469.72
2022-11-20T05:07:02.282Z,100460.75
2022-11-20T05:09:29.050Z,100469.38
2022-11-20T05:11:55.780Z,100469.28
2022-11-20T05:14:22.524Z,100465.44
2022-11-20T05:16:49.440Z,100461.91
2022-11-20T05:19:16.171Z,100465.38
2022-11-20T05:21:42.901Z,100470.88
2022-11-20T05:24:09.624Z,100473.31
2022-11-20T05:26:36.360Z,100466.41
2022-11-20T05:29:03.099Z,100467.13
2022-11-20T05:31:29.820Z,100460.13
2022-11-20T05:33:56.558Z,100452.38
2022-11-20T05:36:23.332Z,100450.13
2022-11-20T05:38:51.186Z,100457.34
2022-11-20T05:41:18.239Z,100453.84
2022-11-20T05:43:45.001Z,100451.13
2022-11-20T05:46:11.720Z,100440.59
2022-11-20T05:48:38.456Z,100438.75
2022-11-20T05:51:05.233Z,100443.50
2022-11-20T05:53:32.023Z,100437.22
2022-11-20T05:55:58.787Z,100434.56
2022-11-20T05:58:25.593Z,100432.25
2022-11-20T06:00:52.319Z,100431.94
2022-11-20T06:03:19.136Z,100430.88
2022-11-20T06:05:45.999Z,100430.84
2022-11-20T06:08:12.864Z,100433.25
2022-11-20T06:10:39.657Z,100419.81
2022-11-20T06:13:06.516Z,100424.41
2022-11-20T06:15:33.228Z,100437.09
2022-11-20T06:17:59.958Z,100435.53
2022-11-20T06:20:26.725Z,100437.41
2022-11-20T06:22:53.450Z,100441.94
2022-11-20T06:25:20.168Z,100444.63
2022-11-20T06:27:46.915Z,100445.50
2022-11-20T06:30:13.640Z,100442.13
2022-11-20T06:32:40.362Z,100445.47
2022-11-20T06:35:07.116Z,100444.53
2022-11-20T06:37:33.834Z,100457.22
2022-11-20T06:40:00.555Z,100456.22
2022-11-20T06:42:27.282Z,100455.81
2022-11-20T06:44:54.017Z,100455.72
2022-11-20T06:47:20.770Z,100454.41
2022-11-20T06:49:47.512Z,100449.38
2022-11-20T06:52:14.237Z,100437.47
2022-11-20T06:54:41.021Z,100438.69
2022-11-20T06:57:07.782Z,100433.13
2022-11-20T06:59:34.495Z,100440.53
2022-11-20T07:02:01.221Z,100433.28
2022-11-20T07:04:28.385Z,100438.94
2022-11-20T07:06:55.106Z,100438.94
2022-11-20T07:09:21.847Z,100440.53
2022-11-20T07:11:48.589Z,100438.06
2022-11-20T07:14:15.314Z,100439.31
2022-11-20T07:16:42.066Z,100442.69
2022-11-20T07:19:08.829Z,100442.47
2022-11-20T07:21:35.555Z,100436.81
2022-11-20T07:24:02.276Z,100434.47
2022-11-20T07:26:29.017Z,100432.69
2022-11-20T07:28:55.748Z,100431.28
2022-11-20T07:31:22.480Z,100425.72
2022-11-20T07:33:49.222Z,100428.81
2022-11-20T07:36:15.964Z,100431.75
2022-11-20T07:38:42.678Z,100425.63
2022-11-20T07:41:09.420Z,100436.69
2022-11-20T07:43:41.073Z,100428.56
2022-11-20T07:46:08.411Z,100424.94
2022-11-20T07:48:35.160Z,100427.66
2022-11-20T07:51:01.896Z,100425.44
2022-11-20T07:53:28.617Z,100423.81
2022-11-20T07:55:55.397Z,100426.44
2022-11-20T07:58:22.144Z,100413.72
2022-11-20T08:00:48.974Z,100413.38
2022-11-20T08:03:20.255Z,100394.50
2022-11-20T08:05:48.542Z,100400.47
2022-11-20T08:08:15.297Z,100407.88
2022-11-20T08:10:42.038Z,100396.59
2022-11-20T08:13:27.625Z,100412.28
2022-11-20T08:15:54.411Z,100424.88
2022-11-20T08:18:31.272Z,100440.16
2022-11-20T08:20:59.126Z,100434.00
2022-11-20T08:23:25.866Z,100449.56
2022-11-20T08:25:52.650Z,100443.72
2022-11-20T08:28:21.593Z,100438.97
2022-11-20T08:30:49.029Z,100443.69
2022-11-20T08:33:15.790Z,100438.47
2022-11-20T08:35:43.772Z,100429.78
2022-11-20T08:38:10.630Z,100434.06
2022-11-20T08:40:37.420Z,100433.28
2022-11-20T08:43:04.191Z,100427.91
2022-11-20T08:45:34.018Z,100423.25
2022-11-20T08:48:01.792Z,100429.47
2022-11-20T08:50:28.546Z,100426.56
2022-11-20T08:52:55.288Z,100421.63
2022-11-20T08:55:22.015Z,100427.25
2022-11-20T08:57:51.002Z,100429.22
2022-11-20T09:00:18.040Z,100423.00
2022-11-20T09:02:44.792Z,100431.41
2022-11-20T09:05:11.570Z,100429.66
2022-11-20T09:07:38.396Z,100426.56
2022-11-20T09:12:52.687Z,100432.19
2022-11-20T09:15:19.551Z,100412.94
2022-11-20T09:17:46.276Z,100411.56
2022-11-20T09:20:13.036Z,100411.38
2022-11-20T09:22:39.765Z,100418.31
2022-11-20T09:25:06.871Z,100410.53
2022-11-20T09:27:33.611Z,100407.94
2022-11-20T09:30:00.341Z,100411.91
2022-11-20T09:32:27.065Z,100403.25
2022-11-20T09:34:53.799Z,100409.28
2022-11-20T09:37:20.532Z,100407.47
2022-11-20T09:39:47.265Z,100412.78
2022-11-20T09:42:14.010Z,100398.13
2022-11-20T09:44:40.734Z,100401.09
2022-11-20T09:47:07.463Z,100397.06
2022-11-20T09:49:34.785Z,100397.69
2022-11-20T09:52:01.594Z,100389.84
2022-11-20T09:54:28.319Z,100384.94
2022-11-20T09:56:55.324Z,100384.91
2022-11-20T09:59:22.299Z,100376.13
2022-11-20T10:01:49.272Z,100375.63
2022-11-20T10:04:16.047Z,100369.75
2022-11-20T10:06:42.772Z,100372.88
2022-11-20T10:09:09.490Z,100369.38
2022-11-20T10:11:36.408Z,100373.69
2022-11-20T10:14:03.138Z,100370.56
2022-11-20T10:16:29.881Z,100363.06
2022-11-20T10:18:56.652Z,100365.25
2022-11-20T10:21:23.400Z,100363.31
2022-11-20T10:23:50.124Z,100358.91
2022-11-20T10:26:17.023Z,100363.81
2022-11-20T10:28:52.760Z,100362.97
2022-11-20T10:31:22.446Z,100363.03
2022-11-20T10:34:11.041Z,100361.25
2022-11-20T10:36:37.339Z,100357.81
2022-11-20T10:39:04.221Z,100350.44
2022-11-20T10:41:33.127Z,100336.81
2022-11-20T10:44:02.614Z,100339.41
2022-11-20T10:46:29.340Z,100344.53
2022-11-20T10:48:56.125Z,100350.28
2022-11-20T10:51:23.697Z,100348.81
2022-11-20T10:53:50.435Z,100339.31
2022-11-20T10:56:17.169Z,100346.34
2022-11-20T10:58:43.914Z,100332.47
2022-11-20T11:01:10.684Z,100333.66
2022-11-20T11:03:37.455Z,100327.47
2022-11-20T11:06:04.495Z,100324.84
2022-11-20T11:08:31.229Z,100322.50
2022-11-20T11:10:57.947Z,100323.00
2022-11-20T11:13:24.711Z,100313.09
2022-11-20T11:15:51.440Z,100305.50
2022-11-20T11:18:18.177Z,100308.69
2022-11-20T11:20:44.924Z,100316.75
2022-11-20T11:23:11.872Z,100304.28
2022-11-20T11:25:39.076Z,100315.69
2022-11-20T11:28:05.851Z,100309.28
2022-11-20T11:30:32.849Z,100313.59
2022-11-20T11:32:59.583Z,100306.59
2022-11-20T11:35:26.409Z,100305.19
2022-11-20T11:37:54.981Z,100301.63
2022-11-20T11:40:24.259Z,100288.88
2022-11-20T11:42:53.095Z,100300.44
2022-11-20T11:45:19.872Z,100303.19
2022-11-20T11:47:46.619Z,100308.72
2022-11-20T11:50:13.380Z,100310.34
2022-11-20T11:52:40.102Z,100304.69
2022-11-20T11:55:11.933Z,100307.94
2022-11-20T11:57:39.053Z,100310.84
2022-11-20T12:00:05.780Z,100303.56
2022-11-20T12:02:32.690Z,100305.16
2022-11-20T12:04:59.546Z,100307.44
2022-11-20T12:07:45.359Z,100304.56
2022-11-20T12:10:13.085Z,100308.81
2022-11-20T12:12:39.805Z,100305.03
2022-11-20T12:15:06.540Z,100303.72
2022-11-20T12:17:33.275Z,100294.53
2022-11-20T12:20:00.006Z,100298.88
2022-11-20T12:22:26.724Z,100302.38
2022-11-20T12:24:53.714Z,100305.47
2022-11-20T12:27:20.440Z,100306.19
2022-11-20T12:29:47.160Z,100300.72
2022-11-20T12:32:13.896Z,100301.69
2022-11-20T12:34:40.637Z,100298.84
2022-11-20T12:37:07.364Z,100299.91
2022-11-20T12:39:34.131Z,100293.63
2022-11-20T12:42:19.667Z,100295.91
2022-11-20T12:45:05.036Z,100292.56
2022-11-20T12:47:31.763Z,100300.00
2022-11-20T12:49:58.526Z,100292.75
2022-11-20T12:52:25.415Z,100294.06
2022-11-20T12:54:52.200Z,100303.53
2022-11-20T12:57:18.938Z,100294.94
2022-11-20T12:59:45.696Z,100290.91
2022-11-20T13:02:12.440Z,100288.75
2022-11-20T13:04:39.198Z,100286.72
2022-11-20T13:07:05.995Z,100273.50
2022-11-20T13:09:32.773Z,100277.66
2022-11-20T13:11:59.494Z,100275.03
2022-11-20T13:14:26.624Z,100267.13
2022-11-20T13:16:53.348Z,100271.16
2022-11-20T13:19:20.162Z,100272.66
2022-11-20T13:21:47.421Z,100265.63
2022-11-20T13:24:14.158Z,100268.03
2022-11-20T13:26:42.284Z,100265.25
2022-11-20T13:29:09.029Z,100266.06
2022-11-20T13:31:35.992Z,100267.34
2022-11-20T13:34:02.748Z,100264.81
2022-11-20T13:36:29.532Z,100262.69
2022-11-20T13:38:56.347Z,100267.44
2022-11-20T13:41:29.283Z,100256.84
2022-11-20T13:43:56.045Z,100248.88
2022-11-20T13:46:25.413Z,100250.16
2022-11-20T13:48:52.163Z,100243.00
2022-11-20T13:51:18.892Z,100254.94
2022-11-20T13:53:45.615Z,100245.66
2022-11-20T13:56:12.387Z,100245.50
2022-11-20T13:58:39.145Z,100251.97
2022-11-20T14:01:05.916Z,100250.44
2022-11-20T14:03:59.136Z,100251.13
2022-11-20T14:06:19.424Z,100245.09
2022-11-20T14:08:46.152Z,100251.44
2022-11-20T14:11:12.911Z,100250.03
2022-11-20T14:13:39.793Z,100248.94
2022-11-20T14:16:06.519Z,100246.81
2022-11-20T14:18:33.247Z,100245.59
2022-11-20T14:20:59.985Z,100232.56
2022-11-20T14:23:29.774Z,100239.03
2022-11-20T14:25:57.131Z,100245.81
2022-11-20T14:28:23.893Z,100237.53
2022-11-20T14:30:50.949Z,100243.34
2022-11-20T14:33:17.755Z,100234.81
2022-11-20T14:35:44.492Z,100242.72
2022-11-20T14:38:11.220Z,100239.09
2022-11-20T14:40:38.008Z,100229.00
2022-11-20T14:43:04.753Z,100230.34
2022-11-20T14:45:31.540Z,100234.44
2022-11-20T14:47:58.294Z,100237.94
2022-11-20T14:50:25.083Z,100242.03
2022-11-20T14:52:51.872Z,100233.66
2022-11-20T14:55:18.612Z,100239.25
2022-11-20T14:57:45.340Z,100235.69
2022-11-20T15:00:12.095Z,100232.84
2022-11-20T15:02:38.838Z,100235.13
2022-11-20T15:05:05.584Z,100231.22
2022-11-20T15:07:32.374Z,100238.84
2022-11-20T15:09:59.200Z,100237.63
2022-11-20T15:12:25.969Z,100235.91
2022-11-20T15:14:52.711Z,100244.88
2022-11-20T15:17:19.449Z,100241.34
2022-11-20T15:19:46.212Z,100243.09
2022-11-20T15:22:14.048Z,100238.66
2022-11-20T15:24:40.764Z,100225.38
2022-11-20T15:27:07.528Z,100229.69
2022-11-20T15:29:34.266Z,100220.84
2022-11-20T15:32:00.997Z,100221.94
2022-11-20T15:34:27.929Z,100219.44
2022-11-20T15:36:55.393Z,100214.66
2022-11-20T15:39:22.121Z,100217.53
2022-11-20T15:41:48.860Z,100213.91
2022-11-20T15:44:15.614Z,100204.34
2022-11-20T15:46:43.269Z,100208.97
2022-11-20T15:49:10.022Z,100206.47
2022-11-20T15:51:36.922Z,100206.31
2022-11-20T15:54:03.664Z,100201.00
2022-11-20T15:56:30.397Z,100203.50
2022-11-20T15:58:57.262Z,100197.75
2022-11-20T16:01:24.089Z,100206.75
2022-11-20T16:03:50.906Z,100211.53
2022-11-20T16:06:17.634Z,100210.59
2022-11-20T16:08:44.635Z,100206.88
2022-11-20T16:11:11.376Z,100209.25
2022-11-20T16:13:56.932Z,100210.72
2022-11-20T16:16:23.712Z,100201.25
2022-11-20T16:18:50.441Z,100196.31
2022-11-20T16:21:17.175Z,100200.22
2022-11-20T16:23:43.960Z,100199.13
2022-11-20T16:26:10.770Z,100203.31
2022-11-20T16:28:37.495Z,100201.88
2022-11-20T16:31:04.247Z,100200.44
2022-11-20T16:33:30.992Z,100191.34
2022-11-20T16:35:57.763Z,100196.47
2022-11-20T16:38:24.512Z,100199.59
2022-11-20T16:40:51.224Z,100196.84
2022-11-20T16:43:17.935Z,100200.69
2022-11-20T16:45:44.742Z,100201.72
2022-11-20T16:48:11.456Z,100199.84
2022-11-20T16:50:38.296Z,100199.38
2022-11-20T16:53:05.045Z,100195.66
2022-11-20T16:55:31.767Z,100194.72
2022-11-20T16:57:58.495Z,100188.22
2022-11-20T17:00:25.227Z,100188.97
2022-11-20T17:02:51.941Z,100189.69
2022-11-20T17:05:18.717Z,100188.81
2022-11-20T17:07:45.539Z,100184.06
2022-11-20T17:10:12.283Z,100177.97
2022-11-20T17:12:39.001Z,100182.38
2022-11-20T17:15:05.744Z,100187.19
2022-11-20T17:17:32.492Z,100186.44
2022-11-20T17:19:59.219Z,100182.38
2022-11-20T17:22:26.000Z,100189.69
2022-11-20T17:24:52.827Z,100177.94
2022-11-20T17:27:19.553Z,100188.78
2022-11-20T17:29:46.287Z,100180.25
2022-11-20T17:32:13.043Z,100176.06
2022-11-20T17:34:39.940Z,100174.25
2022-11-20T17:37:06.762Z,100178.03
2022-11-20T17:39:33.511Z,100172.03
2022-11-20T17:42:19.184Z,100174.03
2022-11-20T17:44:47.240Z,100168.91
2022-11-20T17:47:14.029Z,100167.34
2022-11-20T17:49:40.789Z,100166.63
2022-11-20T17:52:07.780Z,100162.31
2022-11-20T17:54:34.528Z,100163.72
2022-11-20T17:57:20.139Z,100162.06
2022-11-20T17:59:46.855Z,100167.91
2022-11-20T18:02:13.661Z,100158.72
2022-11-20T18:04:40.403Z,100157.19
2022-11-20T18:07:07.238Z,100149.44
2022-11-20T18:09:34.042Z,100154.41
2022-11-20T18:12:00.786Z,100150.78
2022-11-20T18:14:34.581Z,100148.47
2022-11-20T18:17:01.375Z,100144.72
2022-11-20T18:19:32.182Z,100151.19
2022-11-20T18:22:01.183Z,100138.91
2022-11-20T18:24:28.005Z,100145.59
2022-11-20T18:26:54.722Z,100141.63
2022-11-20T18:29:21.952Z,100145.09
2022-11-20T18:31:49.087Z,100155.13
2022-11-20T18:34:15.870Z,100151.75
2022-11-20T18:36:42.753Z,100143.28
2022-11-20T18:39:09.494Z,100134.78
2022-11-20T18:41:55.068Z,100138.16
2022-11-20T18:44:40.416Z,100126.78
2022-11-20T18:47:14.232Z,100132.06
2022-11-20T18:49:41.796Z,100126.53
2022-11-20T18:52:08.599Z,100124.09
2022-11-20T18:54:35.322Z,100119.50
2022-11-20T18:57:02.070Z,100119.94
2022-11-20T18:59:29.224Z,100116.34
2022-11-20T19:01:56.295Z,100107.75
2022-11-20T19:04:23.518Z,100108.78
2022-11-20T19:06:52.668Z,100108.91
2022-11-20T19:09:19.423Z,100115.72
2022-11-20T19:11:46.354Z,100110.09
2022-11-20T19:14:13.108Z,100115.59
2022-11-20T19:16:39.897Z,100108.97
2022-11-20T19:19:06.741Z,100100.25
2022-11-20T19:21:33.532Z,100104.72
2022-11-20T19:24:00.293Z,100104.50
2022-11-20T19:26:27.110Z,100105.66
2022-11-20T19:28:53.826Z,100104.63
2022-11-20T19:31:24.423Z,100103.03
2022-11-20T19:33:51.649Z,100095.53
2022-11-20T19:36:18.401Z,100094.38
2022-11-20T19:38:47.784Z,100078.25
2022-11-20T19:41:14.791Z,100086.31
2022-11-20T19:43:41.557Z,100081.78
2022-11-20T19:46:08.280Z,100069.31
2022-11-20T19:48:35.109Z,100066.44
2022-11-20T19:51:01.899Z,100052.56
2022-11-20T19:53:28.711Z,100050.19
2022-11-20T19:55:55.662Z,100055.03
2022-11-20T19:58:22.388Z,100058.31
2022-11-20T20:00:49.128Z,100046.19
2022-11-20T20:03:15.881Z,100040.31
2022-11-20T20:05:42.647Z,100041.69
2022-11-20T20:08:09.392Z,100047.16
2022-11-20T20:10:36.151Z,100045.03
2022-11-20T20:13:02.901Z,100048.13
2022-11-20T20:15:29.632Z,100035.25
2022-11-20T20:17:56.400Z,100039.44
2022-11-20T20:20:23.163Z,100027.56
2022-11-20T20:22:49.917Z,100027.94
2022-11-20T20:25:16.738Z,100029.22
2022-11-20T20:27:43.495Z,100021.06
2022-11-20T20:30:11.917Z,100023.44
2022-11-20T20:32:38.647Z,100025.91
2022-11-20T20:35:05.384Z,100019.75
2022-11-20T20:37:32.110Z,100031.53
2022-11-20T20:39:58.859Z,100012.88
2022-11-20T20:42:25.576Z,100013.19
2022-11-20T20:45:07.662Z,100016.19
2022-11-20T20:47:34.512Z,100017.69
2022-11-20T20:50:01.297Z,100005.03
2022-11-20T20:52:28.133Z,100002.66
2022-11-20T20:54:54.892Z,100011.47
2022-11-20T20:57:22.479Z,100007.38
2022-11-20T20:59:49.264Z,100006.69
2022-11-20T21:02:16.004Z,100007.97
2022-11-20T21:04:42.745Z,99999.47
2022-11-20T21:07:10.787Z,99997.69
2022-11-20T21:09:37.523Z,99991.81
2022-11-20T21:12:04.293Z,99994.44
2022-11-20T21:14:31.047Z,99986.88
2022-11-20T21:16:57.805Z,99991.53
2022-11-20T21:19:24.592Z,99973.00
2022-11-20T21:22:00.267Z,99972.41
2022-11-20T21:24:27.051Z,99971.88
2022-11-20T21:26:53.851Z,99959.59
2022-11-20T21:29:20.614Z,99962.78
2022-11-20T21:31:47.391Z,99957.91
2022-11-20T21:34:14.157Z,99953.81
2022-11-20T21:36:40.915Z,99944.34
2022-11-20T21:39:07.649Z,99931.91
2022-11-20T21:41:34.411Z,99927.28
2022-11-20T21:44:41.020Z,99922.81
2022-11-20T21:46:48.142Z,99920.97
2022-11-20T21:49:15.346Z,99914.78
2022-11-20T21:51:42.096Z,99905.88
2022-11-20T21:54:08.861Z,99904.97
2022-11-20T21:56:35.659Z,99901.41
2022-11-20T21:59:02.412Z,99898.59
2022-11-20T22:01:31.641Z,99882.50
2022-11-20T22:03:58.476Z,99891.44
2022-11-20T22:06:25.252Z,99894.19
2022-11-20T22:08:52.061Z,99884.81
2022-11-20T22:11:18.833Z,99889.13
2022-11-20T22:14:04.414Z,99890.63
2022-11-20T22:16:31.210Z,99890.28
2022-11-20T22:18:58.028Z,99887.03
2022-11-20T22:21:24.778Z,99890.03
2022-11-20T22:23:51.553Z,99888.31
2022-11-20T22:26:18.297Z,99883.19
2022-11-20T22:28:45.020Z,99886.41
2022-11-20T22:31:11.751Z,99881.00
2022-11-20T22:33:38.601Z,99883.06
2022-11-20T22:36:05.451Z,99880.00
2022-11-20T22:38:36.506Z,99868.38
2022-11-20T22:41:05.930Z,99877.97
2022-11-20T22:43:32.692Z,99875.03
2022-11-20T22:45:59.455Z,99871.19
2022-11-20T22:48:26.189Z,99867.91
2022-11-20T22:50:52.972Z,99855.81
2022-11-20T22:53:19.732Z,99861.06
2022-11-20T22:55:46.450Z,99860.38
2022-11-20T22:58:13.176Z,99856.38
2022-11-20T23:00:39.914Z,99847.34
2022-11-20T23:03:06.847Z,99850.25
2022-11-20T23:05:33.629Z,99852.59
2022-11-20T23:08:00.371Z,99847.41
2022-11-20T23:10:27.123Z,99850.25
2022-11-20T23:12:53.841Z,99833.16
2022-11-20T23:15:20.589Z,99836.91
2022-11-20T23:17:47.307Z,99832.28
2022-11-20T23:20:14.159Z,99828.78
2022-11-20T23:22:40.960Z,99840.16
2022-11-20T23:25:07.762Z,99830.66
2022-11-20T23:27:34.478Z,99835.50
2022-11-20T23:30:01.258Z,99835.59
2022-11-20T23:32:27.989Z,99829.81
2022-11-20T23:34:54.732Z,99823.16
2022-11-20T23:37:21.481Z,99817.16
2022-11-20T23:39:48.209Z,99814.34
2022-11-20T23:42:15.012Z,99806.97
2022-11-20T23:44:41.778Z,99809.63
2022-11-20T23:47:08.589Z,99805.66
2022-11-20T23:49:35.533Z,99797.41
2022-11-20T23:52:02.569Z,99791.56
2022-11-20T23:54:29.551Z,99786.22
2022-11-20T23:56:56.479Z,99785.75
2022-11-20T23:59:23.290Z,99789.75
